Terminal Aerodrome Forecast
Issued by NWS

Home | Current Version | Previous Version | Text Only | Print | Product List | Glossary On
Versions: 1 2 3 4 5 6 7 8 9 10 11 12 13 14 15 16 17
717
FTUS43 KIND 281734
TAFLAF
TAF
KLAF 281734Z 2818/2918 33009KT P6SM VCSH OVC060
     FM290300 34006KT P6SM BKN045 PROB30 2903/2905 4SM -SHRA OVC025
     FM290500 36006KT P6SM BKN020 PROB30 2905/2907 4SM -SHRA OVC007
     FM290700 01008KT 6SM BR BKN015 PROB30 2907/2912 2SM -SHRA BR
      OVC005
     FM291300 02009KT 5SM BR BKN020=

USA.gov is the U.S. government's official web portal to all federal, state and local government web resources and services.